createdAt,value
2017-12-26T00:00:45.990Z,94.88
2017-12-26T00:03:14.935Z,94.71
2017-12-26T00:05:43.475Z,94.97
2017-12-26T00:08:11.801Z,94.98
2017-12-26T00:10:41.326Z,95.32
2017-12-26T00:13:10.670Z,95.57
2017-12-26T00:15:39.676Z,95.65
2017-12-26T00:18:08.127Z,95.68
2017-12-26T00:20:37.107Z,95.37
2017-12-26T00:23:06.378Z,95.08
2017-12-26T00:25:35.346Z,95.06
2017-12-26T00:28:04.222Z,95.02
2017-12-26T00:30:33.513Z,94.99
2017-12-26T00:33:01.906Z,95.48
2017-12-26T00:35:30.728Z,95.21
2017-12-26T00:37:59.225Z,94.83
2017-12-26T00:40:28.285Z,95.45
2017-12-26T00:42:57.348Z,95.49
2017-12-26T00:45:26.570Z,95.10
2017-12-26T00:47:55.041Z,95.22
2017-12-26T00:50:24.080Z,94.99
2017-12-26T00:52:53.694Z,94.81
2017-12-26T00:55:22.064Z,95.19
2017-12-26T00:57:51.062Z,95.72
2017-12-26T01:00:19.407Z,95.97
2017-12-26T01:02:49.356Z,96.08
2017-12-26T01:05:18.385Z,96.03
2017-12-26T01:07:47.605Z,95.97
2017-12-26T01:10:17.300Z,96.35
2017-12-26T01:12:45.644Z,96.22
2017-12-26T01:15:14.887Z,96.04
2017-12-26T01:17:43.549Z,95.75
2017-12-26T01:20:12.109Z,95.74
2017-12-26T01:22:41.220Z,95.60
2017-12-26T01:25:10.501Z,95.43
2017-12-26T01:27:39.071Z,95.33
2017-12-26T01:30:07.652Z,95.04
2017-12-26T01:32:36.085Z,94.88
2017-12-26T01:35:04.474Z,94.77
2017-12-26T01:37:33.364Z,94.85
2017-12-26T01:40:02.526Z,94.76
2017-12-26T01:42:31.409Z,94.57
2017-12-26T01:44:59.781Z,94.33
2017-12-26T01:47:29.749Z,94.28
2017-12-26T01:49:58.113Z,94.65
2017-12-26T01:52:27.060Z,95.26
2017-12-26T01:54:55.551Z,95.35
2017-12-26T01:57:24.424Z,95.27
2017-12-26T01:59:53.582Z,95.33
2017-12-26T02:02:22.014Z,95.39
2017-12-26T02:04:50.956Z,95.00
2017-12-26T02:07:19.877Z,94.72
2017-12-26T02:09:48.331Z,94.54
2017-12-26T02:12:19.100Z,94.51
2017-12-26T02:14:48.184Z,94.42
2017-12-26T02:17:17.033Z,94.58
2017-12-26T02:19:46.455Z,95.04
2017-12-26T02:22:16.106Z,95.22
2017-12-26T02:24:44.465Z,95.09
2017-12-26T02:27:12.849Z,94.80
2017-12-26T02:29:41.183Z,94.66
2017-12-26T02:32:10.147Z,94.80
2017-12-26T02:34:38.589Z,94.68
2017-12-26T02:37:07.072Z,95.01
2017-12-26T02:39:35.397Z,95.14
2017-12-26T02:42:06.566Z,95.38
2017-12-26T02:44:35.480Z,95.71
2017-12-26T02:47:04.859Z,95.69
2017-12-26T02:49:33.876Z,95.49
2017-12-26T02:52:02.958Z,95.16
2017-12-26T02:54:31.865Z,95.08
2017-12-26T02:57:00.440Z,95.01
2017-12-26T02:59:28.761Z,95.19
2017-12-26T03:01:57.088Z,95.34
2017-12-26T03:04:25.955Z,95.62
2017-12-26T03:06:55.005Z,95.53
2017-12-26T03:09:23.335Z,95.43
2017-12-26T03:11:51.806Z,95.35
2017-12-26T03:14:20.877Z,95.47
2017-12-26T03:16:49.388Z,95.63
2017-12-26T03:19:18.192Z,96.01
2017-12-26T03:21:46.508Z,96.06
2017-12-26T03:24:14.848Z,96.00
2017-12-26T03:26:43.748Z,95.85
2017-12-26T03:29:12.592Z,95.66
2017-12-26T03:31:40.924Z,95.70
2017-12-26T03:34:09.396Z,95.79
2017-12-26T03:36:38.504Z,95.71
2017-12-26T03:39:07.196Z,95.58
2017-12-26T03:41:35.963Z,95.58
2017-12-26T03:44:04.800Z,95.59
2017-12-26T03:46:33.167Z,95.39
2017-12-26T03:49:01.633Z,95.17
2017-12-26T03:51:30.456Z,95.04
2017-12-26T03:53:58.816Z,94.82
2017-12-26T03:56:27.245Z,94.84
2017-12-26T03:58:57.053Z,94.63
2017-12-26T04:01:25.456Z,94.56
2017-12-26T04:03:54.488Z,94.59
2017-12-26T04:06:23.505Z,94.43
2017-12-26T04:08:59.536Z,94.53
2017-12-26T04:11:28.343Z,94.57
2017-12-26T04:13:57.330Z,94.57
2017-12-26T04:16:25.709Z,94.66
2017-12-26T04:18:54.694Z,94.54
2017-12-26T04:21:23.103Z,94.37
2017-12-26T04:23:52.903Z,94.40
2017-12-26T04:26:21.277Z,94.37
2017-12-26T04:28:51.884Z,94.62
2017-12-26T04:31:20.979Z,94.51
2017-12-26T04:33:49.308Z,94.31
2017-12-26T04:36:17.760Z,94.25
2017-12-26T04:38:47.639Z,94.23
2017-12-26T04:41:16.716Z,94.18
2017-12-26T04:43:45.232Z,94.23
2017-12-26T04:46:14.094Z,94.24
2017-12-26T04:48:43.195Z,94.14
2017-12-26T04:51:12.116Z,94.17
2017-12-26T04:53:40.496Z,94.00
2017-12-26T04:56:10.201Z,93.78
2017-12-26T04:58:38.644Z,93.88
2017-12-26T05:01:10.261Z,93.95
2017-12-26T05:03:39.248Z,93.73
2017-12-26T05:06:07.589Z,93.59
2017-12-26T05:08:36.680Z,93.58
2017-12-26T05:11:05.736Z,93.67
2017-12-26T05:13:34.092Z,93.41
2017-12-26T05:16:02.988Z,93.65
2017-12-26T05:18:31.305Z,93.34
2017-12-26T05:21:00.446Z,93.40
2017-12-26T05:23:28.940Z,93.30
2017-12-26T05:25:58.004Z,93.23
2017-12-26T05:28:26.926Z,93.71
2017-12-26T05:30:55.388Z,93.82
2017-12-26T05:33:24.275Z,93.61
2017-12-26T05:35:52.632Z,93.36
2017-12-26T05:38:21.393Z,93.61
2017-12-26T05:40:50.161Z,93.57
2017-12-26T05:43:19.245Z,93.43
2017-12-26T05:45:47.931Z,93.90
2017-12-26T05:48:16.572Z,93.96
2017-12-26T05:50:45.480Z,93.98
2017-12-26T05:53:13.865Z,94.74
2017-12-26T05:55:43.040Z,94.52
2017-12-26T05:58:11.983Z,94.46
2017-12-26T06:00:40.644Z,94.72
2017-12-26T06:03:09.380Z,94.60
2017-12-26T06:05:37.768Z,94.53
2017-12-26T06:08:06.792Z,94.40
2017-12-26T06:10:35.207Z,94.53
2017-12-26T06:13:04.099Z,94.29
2017-12-26T06:15:32.522Z,94.16
2017-12-26T06:18:00.844Z,94.05
2017-12-26T06:20:29.746Z,93.95
2017-12-26T06:22:58.175Z,93.99
2017-12-26T06:25:26.581Z,94.26
2017-12-26T06:27:55.564Z,94.47
2017-12-26T06:30:24.677Z,94.36
2017-12-26T06:32:53.283Z,94.06
2017-12-26T06:35:21.839Z,94.31
2017-12-26T06:37:50.260Z,94.71
2017-12-26T06:40:19.221Z,94.77
2017-12-26T06:42:47.564Z,94.50
2017-12-26T06:45:16.557Z,94.29
2017-12-26T06:47:44.893Z,94.27
2017-12-26T06:50:13.306Z,94.66
2017-12-26T06:52:42.316Z,94.93
2017-12-26T06:55:10.640Z,94.79
2017-12-26T06:57:39.821Z,94.50
2017-12-26T07:00:08.208Z,94.80
2017-12-26T07:02:36.979Z,94.74
2017-12-26T07:05:05.306Z,94.54
2017-12-26T07:07:34.344Z,94.83
2017-12-26T07:10:02.769Z,94.58
2017-12-26T07:12:31.332Z,94.32
2017-12-26T07:15:01.344Z,94.37
2017-12-26T07:17:31.412Z,94.45
2017-12-26T07:20:00.660Z,94.57
2017-12-26T07:22:29.968Z,94.67
2017-12-26T07:24:58.839Z,94.78
2017-12-26T07:27:27.161Z,94.81
2017-12-26T07:29:56.265Z,94.59
2017-12-26T07:32:25.471Z,94.78
2017-12-26T07:34:53.860Z,94.87
2017-12-26T07:37:28.712Z,95.04
2017-12-26T07:39:57.567Z,95.00
2017-12-26T07:42:25.986Z,94.66
2017-12-26T07:44:54.928Z,94.34
2017-12-26T07:47:23.737Z,94.26
2017-12-26T07:49:53.148Z,94.21
2017-12-26T07:52:21.577Z,94.16
2017-12-26T07:54:50.358Z,94.05
2017-12-26T07:57:18.747Z,93.91
2017-12-26T07:59:47.064Z,93.99
2017-12-26T08:02:16.189Z,94.28
2017-12-26T08:04:45.203Z,94.29
2017-12-26T08:07:13.528Z,94.24
2017-12-26T08:09:42.068Z,94.40
2017-12-26T08:12:11.005Z,94.30
2017-12-26T08:14:39.512Z,94.63
2017-12-26T08:17:07.908Z,94.53
2017-12-26T08:19:36.243Z,94.58
2017-12-26T08:22:06.477Z,94.82
2017-12-26T08:24:35.592Z,94.76
2017-12-26T08:27:04.017Z,94.66
2017-12-26T08:29:32.889Z,94.51
2017-12-26T08:32:01.264Z,94.45
2017-12-26T08:34:30.236Z,94.27
2017-12-26T08:36:58.685Z,94.21
2017-12-26T08:39:27.727Z,94.16
2017-12-26T08:41:56.254Z,93.80
2017-12-26T08:44:25.049Z,93.63
2017-12-26T08:46:54.168Z,93.54
2017-12-26T08:49:23.088Z,93.61
2017-12-26T08:51:51.497Z,93.49
2017-12-26T08:54:20.002Z,93.28
2017-12-26T08:56:48.892Z,91.47
2017-12-26T08:59:17.952Z,91.11
2017-12-26T09:01:46.752Z,91.96
2017-12-26T09:04:15.704Z,91.56
2017-12-26T09:06:44.599Z,90.77
2017-12-26T09:09:12.912Z,90.31
2017-12-26T09:11:41.292Z,90.30
2017-12-26T09:14:10.121Z,90.67
2017-12-26T09:16:39.260Z,91.19
2017-12-26T09:19:08.393Z,91.36
2017-12-26T09:21:37.501Z,91.89
2017-12-26T09:24:06.427Z,91.78
2017-12-26T09:26:34.739Z,91.85
2017-12-26T09:29:03.144Z,89.94
2017-12-26T09:31:31.739Z,90.21
2017-12-26T09:34:01.554Z,90.68
2017-12-26T09:36:30.431Z,90.68
2017-12-26T09:39:00.168Z,89.22
2017-12-26T09:41:28.488Z,86.29
2017-12-26T09:43:57.752Z,86.28
2017-12-26T09:46:26.776Z,88.59
2017-12-26T09:48:56.720Z,88.54
2017-12-26T09:51:25.477Z,89.36
2017-12-26T09:53:54.736Z,89.55
2017-12-26T09:56:23.067Z,89.11
2017-12-26T09:58:52.342Z,88.91
2017-12-26T10:01:20.716Z,88.18
2017-12-26T10:03:49.024Z,88.65
2017-12-26T10:06:17.804Z,89.15
2017-12-26T10:08:47.034Z,90.09
2017-12-26T10:11:15.552Z,89.33
2017-12-26T10:13:44.268Z,88.27
2017-12-26T10:16:12.585Z,89.83
2017-12-26T10:18:41.687Z,90.49
2017-12-26T10:21:10.593Z,90.17
2017-12-26T10:23:38.976Z,88.09
2017-12-26T10:26:07.361Z,88.52
2017-12-26T10:28:35.681Z,86.34
2017-12-26T10:31:04.597Z,83.68
2017-12-26T10:33:33.789Z,81.43
2017-12-26T10:36:02.189Z,79.59
2017-12-26T10:38:31.168Z,76.41
2017-12-26T10:41:00.262Z,74.46
2017-12-26T10:43:30.088Z,74.05
2017-12-26T10:45:58.571Z,74.02
2017-12-26T10:48:27.365Z,74.29
2017-12-26T10:50:55.770Z,71.20
2017-12-26T10:53:24.217Z,72.21
2017-12-26T10:55:53.821Z,71.41
2017-12-26T10:58:23.067Z,68.58
2017-12-26T11:00:52.905Z,69.45
2017-12-26T11:03:24.085Z,65.80
2017-12-26T11:05:54.450Z,66.80
2017-12-26T11:08:23.387Z,64.75
2017-12-26T11:10:52.638Z,64.90
2017-12-26T11:13:20.961Z,65.42
2017-12-26T11:15:50.145Z,64.07
2017-12-26T11:18:19.256Z,63.06
2017-12-26T11:20:48.349Z,62.61
2017-12-26T11:23:17.346Z,63.00
2017-12-26T11:25:46.774Z,61.84
2017-12-26T11:28:15.185Z,61.53
2017-12-26T11:30:43.813Z,62.69
2017-12-26T11:33:12.918Z,62.29
2017-12-26T11:35:41.813Z,61.33
2017-12-26T11:38:10.212Z,61.92
2017-12-26T11:40:38.662Z,60.69
2017-12-26T11:43:07.469Z,59.45
2017-12-26T11:45:36.710Z,59.22
2017-12-26T11:48:05.820Z,59.10
2017-12-26T11:50:34.887Z,58.73
2017-12-26T11:53:03.995Z,58.15
2017-12-26T11:55:32.459Z,57.29
2017-12-26T11:58:01.404Z,58.46
2017-12-26T12:00:30.381Z,58.79
2017-12-26T12:02:59.513Z,58.82
2017-12-26T12:05:28.385Z,59.20
2017-12-26T12:08:01.102Z,59.74
2017-12-26T12:10:30.138Z,59.95
2017-12-26T12:12:59.254Z,60.93
2017-12-26T12:15:28.509Z,60.85
2017-12-26T12:17:57.441Z,60.97
2017-12-26T12:20:26.477Z,60.87
2017-12-26T12:22:55.162Z,59.94
2017-12-26T12:25:23.864Z,59.93
2017-12-26T12:27:52.186Z,60.02
2017-12-26T12:30:21.294Z,59.95
2017-12-26T12:32:49.801Z,60.82
2017-12-26T12:35:18.582Z,60.38
2017-12-26T12:37:47.167Z,59.94
2017-12-26T12:40:16.057Z,59.16
2017-12-26T12:42:45.234Z,59.58
2017-12-26T12:45:14.231Z,57.52
2017-12-26T12:47:42.913Z,57.39
2017-12-26T12:50:11.225Z,58.83
2017-12-26T12:52:40.811Z,59.32
2017-12-26T12:55:09.721Z,59.88
2017-12-26T12:57:38.041Z,60.35
2017-12-26T13:00:07.289Z,60.98
2017-12-26T13:02:36.081Z,60.69
2017-12-26T13:05:04.971Z,60.51
2017-12-26T13:07:33.677Z,60.40
2017-12-26T13:10:02.705Z,60.76
2017-12-26T13:12:31.020Z,61.00
2017-12-26T13:15:00.115Z,60.93
2017-12-26T13:17:29.133Z,60.84
2017-12-26T13:19:58.285Z,61.90
2017-12-26T13:22:27.600Z,61.06
2017-12-26T13:24:56.652Z,61.20
2017-12-26T13:27:25.701Z,61.54
2017-12-26T13:29:54.458Z,61.28
2017-12-26T13:32:23.110Z,61.19
2017-12-26T13:34:51.518Z,60.01
2017-12-26T13:37:20.333Z,60.61
2017-12-26T13:39:48.771Z,61.13
2017-12-26T13:42:17.146Z,61.39
2017-12-26T13:44:45.860Z,61.07
2017-12-26T13:47:14.389Z,60.63
2017-12-26T13:49:42.747Z,60.59
2017-12-26T13:52:11.749Z,61.10
2017-12-26T13:54:40.210Z,60.49
2017-12-26T13:57:09.370Z,60.04
2017-12-26T13:59:37.679Z,59.74
2017-12-26T14:02:06.500Z,59.16
2017-12-26T14:04:34.928Z,58.54
2017-12-26T14:07:03.783Z,58.50
2017-12-26T14:09:33.031Z,58.67
2017-12-26T14:12:02.160Z,58.11
2017-12-26T14:14:31.080Z,57.55
2017-12-26T14:16:59.458Z,58.20
2017-12-26T14:19:28.586Z,57.99
2017-12-26T14:21:57.624Z,57.66
2017-12-26T14:24:25.940Z,57.59
2017-12-26T14:26:54.464Z,57.02
2017-12-26T14:29:23.272Z,57.43
2017-12-26T14:31:51.626Z,57.55
2017-12-26T14:34:20.736Z,57.92
2017-12-26T14:36:49.824Z,58.53
2017-12-26T14:39:18.724Z,58.55
2017-12-26T14:41:48.107Z,59.43
2017-12-26T14:44:16.569Z,59.42
2017-12-26T14:46:45.267Z,58.90
2017-12-26T14:49:13.618Z,59.33
2017-12-26T14:51:42.056Z,60.42
2017-12-26T14:54:10.672Z,61.30
2017-12-26T14:56:40.069Z,62.38
2017-12-26T14:59:08.416Z,63.23
2017-12-26T15:01:37.180Z,62.44
2017-12-26T15:04:05.766Z,63.11
2017-12-26T15:06:34.872Z,63.85
2017-12-26T15:09:03.472Z,64.88
2017-12-26T15:11:32.332Z,65.61
2017-12-26T15:14:01.338Z,66.62
2017-12-26T15:16:30.260Z,68.47
2017-12-26T15:18:58.624Z,69.18
2017-12-26T15:21:27.964Z,70.12
2017-12-26T15:23:56.855Z,70.84
2017-12-26T15:26:25.157Z,71.31
2017-12-26T15:28:53.597Z,71.29
2017-12-26T15:31:22.633Z,70.65
2017-12-26T15:33:51.317Z,70.17
2017-12-26T15:36:21.237Z,70.56
2017-12-26T15:38:51.976Z,71.42
2017-12-26T15:41:22.281Z,71.38
2017-12-26T15:43:50.808Z,72.14
2017-12-26T15:46:20.363Z,70.62
2017-12-26T15:48:48.722Z,68.75
2017-12-26T15:51:17.622Z,68.81
2017-12-26T15:53:45.968Z,68.45
2017-12-26T15:56:14.416Z,69.13
2017-12-26T15:58:43.352Z,68.37
2017-12-26T16:01:11.677Z,67.59
2017-12-26T16:03:40.889Z,67.22
2017-12-26T16:06:09.984Z,66.88
2017-12-26T16:08:38.932Z,67.54
2017-12-26T16:11:07.347Z,67.72
2017-12-26T16:13:36.351Z,67.30
2017-12-26T16:16:05.603Z,67.44
2017-12-26T16:18:34.585Z,67.84
2017-12-26T16:21:03.456Z,67.20
2017-12-26T16:23:31.844Z,68.05
2017-12-26T16:26:00.187Z,68.65
2017-12-26T16:28:29.247Z,69.55
2017-12-26T16:30:58.369Z,68.93
2017-12-26T16:33:26.870Z,68.84
2017-12-26T16:35:55.685Z,69.42
2017-12-26T16:38:24.901Z,70.53
2017-12-26T16:40:54.099Z,71.36
2017-12-26T16:43:22.642Z,71.62
2017-12-26T16:45:54.646Z,72.14
2017-12-26T16:48:23.625Z,72.00
2017-12-26T16:50:51.996Z,72.36
2017-12-26T16:53:20.464Z,72.61
2017-12-26T16:55:49.437Z,73.17
2017-12-26T16:58:18.239Z,73.40
2017-12-26T17:00:47.521Z,73.03
2017-12-26T17:03:15.914Z,73.56
2017-12-26T17:05:44.851Z,73.84
2017-12-26T17:08:13.332Z,73.79
2017-12-26T17:10:42.214Z,73.64
2017-12-26T17:13:11.485Z,73.89
2017-12-26T17:15:40.457Z,73.18
2017-12-26T17:18:08.841Z,74.26
2017-12-26T17:20:37.793Z,74.48
2017-12-26T17:23:06.213Z,74.46
2017-12-26T17:25:35.243Z,74.85
2017-12-26T17:28:04.314Z,75.20
2017-12-26T17:30:33.327Z,75.93
2017-12-26T17:33:01.687Z,77.19
2017-12-26T17:35:30.305Z,78.36
2017-12-26T17:37:59.085Z,78.68
2017-12-26T17:40:27.989Z,78.68
2017-12-26T17:42:56.414Z,78.92
2017-12-26T17:45:25.565Z,78.95
2017-12-26T17:48:08.526Z,78.94
2017-12-26T17:50:37.345Z,78.56
2017-12-26T17:53:05.852Z,78.01
2017-12-26T17:55:34.224Z,77.56
2017-12-26T17:58:03.012Z,77.08
2017-12-26T18:00:31.378Z,75.52
2017-12-26T18:02:59.973Z,74.91
2017-12-26T18:05:28.436Z,74.67
2017-12-26T18:07:58.035Z,75.37
2017-12-26T18:10:27.080Z,76.28
2017-12-26T18:12:55.428Z,76.98
2017-12-26T18:15:23.832Z,77.52
2017-12-26T18:17:52.706Z,78.08
2017-12-26T18:20:22.202Z,79.07
2017-12-26T18:22:50.805Z,79.17
2017-12-26T18:25:19.267Z,78.95
2017-12-26T18:27:47.855Z,79.45
2017-12-26T18:32:52.013Z,80.12
2017-12-26T18:35:20.558Z,80.12
2017-12-26T18:37:49.758Z,80.12
2017-12-26T18:40:19.441Z,79.80
2017-12-26T18:42:47.751Z,79.84
2017-12-26T18:45:16.867Z,79.90
2017-12-26T18:47:45.272Z,79.85
2017-12-26T18:50:14.753Z,80.43
2017-12-26T18:52:44.763Z,81.56
2017-12-26T18:55:13.440Z,81.66
2017-12-26T18:57:43.247Z,81.86
2017-12-26T19:00:12.321Z,82.15
2017-12-26T19:02:41.568Z,82.09
2017-12-26T19:05:10.499Z,81.69
2017-12-26T19:07:38.798Z,81.72
2017-12-26T19:10:08.724Z,82.07
2017-12-26T19:12:37.278Z,81.89
2017-12-26T19:15:06.017Z,81.85
2017-12-26T19:17:34.409Z,81.71
2017-12-26T19:20:02.962Z,81.51
2017-12-26T19:22:31.711Z,81.48
2017-12-26T19:25:00.165Z,79.85
2017-12-26T19:27:28.517Z,79.26
2017-12-26T19:29:57.753Z,79.42
2017-12-26T19:32:27.287Z,79.62
2017-12-26T19:34:56.373Z,79.18
2017-12-26T19:37:25.403Z,80.33
2017-12-26T19:39:53.724Z,80.97
2017-12-26T19:42:22.804Z,80.68
2017-12-26T19:44:51.194Z,81.17
2017-12-26T19:47:19.519Z,82.50
2017-12-26T19:49:47.898Z,83.01
2017-12-26T19:52:17.197Z,83.51
2017-12-26T19:54:46.339Z,83.99
2017-12-26T19:57:14.727Z,84.25
2017-12-26T19:59:43.152Z,84.79
2017-12-26T20:02:11.500Z,84.77
2017-12-26T20:04:39.905Z,84.67
2017-12-26T20:07:08.434Z,85.09
2017-12-26T20:09:36.872Z,85.55
2017-12-26T20:12:05.323Z,86.01
2017-12-26T20:14:33.696Z,86.40
2017-12-26T20:17:02.163Z,86.40
2017-12-26T20:19:30.548Z,86.84
2017-12-26T20:21:58.953Z,85.84
2017-12-26T20:24:27.378Z,84.45
2017-12-26T20:26:56.887Z,83.69
2017-12-26T20:29:25.291Z,83.12
2017-12-26T20:31:53.816Z,83.12
2017-12-26T20:34:22.186Z,83.17
2017-12-26T20:36:51.319Z,83.97
2017-12-26T20:39:19.800Z,85.26
2017-12-26T20:41:48.177Z,86.55
2017-12-26T20:44:16.553Z,87.13
2017-12-26T20:46:45.014Z,86.90
2017-12-26T20:49:14.101Z,86.92
2017-12-26T20:51:43.302Z,87.20
2017-12-26T20:54:11.824Z,87.60
2017-12-26T20:56:40.199Z,87.84
2017-12-26T20:59:08.569Z,88.02
2017-12-26T21:01:37.018Z,88.10
2017-12-26T21:04:05.421Z,88.33
2017-12-26T21:06:33.832Z,88.66
2017-12-26T21:09:02.267Z,88.36
2017-12-26T21:11:30.743Z,88.18
2017-12-26T21:13:59.111Z,88.32
2017-12-26T21:16:28.419Z,89.13
2017-12-26T21:18:57.572Z,89.46
2017-12-26T21:21:25.956Z,89.81
2017-12-26T21:23:54.395Z,90.14
2017-12-26T21:26:22.779Z,90.05
2017-12-26T21:28:51.240Z,89.87
2017-12-26T21:31:20.438Z,89.71
2017-12-26T21:33:48.819Z,89.66
2017-12-26T21:36:17.201Z,89.62
2017-12-26T21:38:45.981Z,89.78
2017-12-26T21:41:15.166Z,89.80
2017-12-26T21:43:43.552Z,89.81
2017-12-26T21:46:12.751Z,89.81
2017-12-26T21:48:41.140Z,89.61
2017-12-26T21:51:10.298Z,89.85
2017-12-26T21:53:38.761Z,90.09
2017-12-26T21:56:07.139Z,90.63
2017-12-26T21:58:35.511Z,90.54
2017-12-26T22:01:03.929Z,89.95
2017-12-26T22:03:32.303Z,88.95
2017-12-26T22:06:00.683Z,88.58
2017-12-26T22:08:29.147Z,88.67
2017-12-26T22:10:57.529Z,88.75
2017-12-26T22:13:25.907Z,88.81
2017-12-26T22:15:54.342Z,88.91
2017-12-26T22:18:23.344Z,88.66
2017-12-26T22:20:52.186Z,88.52
2017-12-26T22:23:21.323Z,88.77
2017-12-26T22:25:50.457Z,90.18
2017-12-26T22:28:19.487Z,90.50
2017-12-26T22:30:48.588Z,90.22
2017-12-26T22:33:17.458Z,90.02
2017-12-26T22:35:46.330Z,89.84
2017-12-26T22:38:15.167Z,89.88
2017-12-26T22:40:43.948Z,90.12
2017-12-26T22:43:12.782Z,90.14
2017-12-26T22:45:41.513Z,90.15
2017-12-26T22:48:10.709Z,90.11
2017-12-26T22:50:39.358Z,90.08
2017-12-26T22:53:07.973Z,90.04
2017-12-26T22:55:37.115Z,89.76
2017-12-26T22:58:06.160Z,89.67
2017-12-26T23:00:35.285Z,89.86
2017-12-26T23:03:04.437Z,90.19
2017-12-26T23:05:33.455Z,90.50
2017-12-26T23:08:02.555Z,90.61
2017-12-26T23:10:31.001Z,90.68
2017-12-26T23:12:59.967Z,90.46
2017-12-26T23:15:34.466Z,90.93
2017-12-26T23:18:08.581Z,90.80
2017-12-26T23:20:43.529Z,90.89
2017-12-26T23:23:17.882Z,90.66
2017-12-26T23:25:52.322Z,90.68
2017-12-26T23:28:26.929Z,90.48
2017-12-26T23:31:01.879Z,90.03
2017-12-26T23:33:35.792Z,89.72
2017-12-26T23:36:10.861Z,89.55
2017-12-26T23:52:14.518Z,89.47
2017-12-26T23:54:48.328Z,88.63
2017-12-26T23:57:23.176Z,87.95
2017-12-26T23:59:57.727Z,87.93
